Saint Louis, Missouri
Traffic Map
Current Weather Conditions
Saint Louis, Missouri
Clear
Clear
-3°
Feels Like: -10°
Wind Chill: -10° Ceiling: Unl
Heat Index: -3° Visibility: 10mi
Dew Point: -13° Wind: 15mph
Humidity: 49% Direction: 320° (NW)
Pressure: 30.46in Gusts: 0mph
Raw Report DataKCPS 130153Z 32013KT 10SM CLR M03/M13 A3046 RMK AO2 SLP321 T10331128
Traffic Incident Summary
Active as of:
Severity:
Category:
InformationThere was an issue retrieving the traffic information for this location. Please try a different location or try again shortly.
Advertisements
Track Severe Weather on mobile